createdAt,value
2022-08-23T00:02:26.555Z,17.30
2022-08-23T00:05:04.192Z,17.30
2022-08-23T00:07:39.426Z,17.30
2022-08-23T00:10:09.517Z,17.30
2022-08-23T00:12:37.042Z,17.20
2022-08-23T00:15:05.883Z,17.20
2022-08-23T00:17:35.045Z,17.10
2022-08-23T00:20:04.980Z,17.10
2022-08-23T00:22:32.053Z,17.10
2022-08-23T00:24:59.250Z,17.00
2022-08-23T00:27:26.973Z,16.90
2022-08-23T00:29:55.730Z,16.90
2022-08-23T00:32:29.136Z,16.80
2022-08-23T00:34:56.828Z,16.70
2022-08-23T00:37:24.169Z,16.70
2022-08-23T00:39:51.957Z,16.70
2022-08-23T00:42:57.139Z,16.60
2022-08-23T00:45:58.260Z,16.60
2022-08-23T00:48:25.666Z,16.50
2022-08-23T00:51:18.837Z,16.40
2022-08-23T00:53:53.523Z,16.30
2022-08-23T00:56:23.730Z,16.20
2022-08-23T00:58:50.932Z,16.10
2022-08-23T01:01:18.405Z,16.10
2022-08-23T01:03:57.068Z,16.10
2022-08-23T01:06:44.120Z,16.00
2022-08-23T01:09:18.376Z,16.00
2022-08-23T01:12:07.269Z,16.00
2022-08-23T01:15:02.432Z,16.00
2022-08-23T01:17:43.900Z,16.00
2022-08-23T01:20:18.161Z,15.90
2022-08-23T01:22:58.093Z,15.80
2022-08-23T01:25:28.898Z,15.80
2022-08-23T01:27:56.923Z,15.80
2022-08-23T01:30:26.935Z,15.80
2022-08-23T01:32:58.160Z,15.70
2022-08-23T01:35:42.497Z,15.70
2022-08-23T01:38:10.881Z,15.70
2022-08-23T01:40:40.444Z,15.70
2022-08-23T01:43:08.534Z,15.60
2022-08-23T01:45:35.824Z,15.60
2022-08-23T01:48:03.892Z,15.60
2022-08-23T01:50:31.035Z,15.60
2022-08-23T01:52:59.200Z,15.50
2022-08-23T01:55:26.803Z,15.50
2022-08-23T01:58:00.878Z,15.50
2022-08-23T02:00:32.968Z,15.50
2022-08-23T02:03:01.240Z,15.50
2022-08-23T02:05:29.473Z,15.50
2022-08-23T02:07:56.874Z,15.40
2022-08-23T02:10:23.852Z,15.30
2022-08-23T02:12:50.871Z,15.20
2022-08-23T02:15:18.235Z,15.20
2022-08-23T02:17:46.634Z,15.10
2022-08-23T02:20:14.333Z,15.10
2022-08-23T02:22:41.654Z,15.00
2022-08-23T02:25:09.050Z,15.00
2022-08-23T02:27:36.120Z,14.90
2022-08-23T02:30:04.294Z,14.80
2022-08-23T02:32:32.108Z,14.70
2022-08-23T02:35:04.481Z,14.70
2022-08-23T02:37:32.674Z,14.70
2022-08-23T02:40:00.029Z,14.70
2022-08-23T02:42:27.296Z,14.80
2022-08-23T02:44:54.936Z,14.80
2022-08-23T02:47:22.110Z,14.80
2022-08-23T02:49:49.134Z,14.80
2022-08-23T02:52:16.707Z,14.80
2022-08-23T02:54:44.559Z,14.70
2022-08-23T02:57:11.619Z,14.70
2022-08-23T02:59:39.020Z,14.70
2022-08-23T03:02:06.186Z,14.80
2022-08-23T03:04:33.302Z,14.80
2022-08-23T03:07:00.620Z,14.80
2022-08-23T03:09:27.768Z,14.70
2022-08-23T03:11:54.858Z,14.70
2022-08-23T03:14:22.575Z,14.70
2022-08-23T03:16:49.645Z,14.80
2022-08-23T03:19:16.698Z,14.70
2022-08-23T03:21:43.747Z,14.70
2022-08-23T03:24:11.623Z,14.70
2022-08-23T03:26:41.717Z,14.70
2022-08-23T03:29:09.129Z,14.50
2022-08-23T03:31:36.423Z,14.40
2022-08-23T03:34:04.652Z,14.30
2022-08-23T03:36:31.958Z,14.30
2022-08-23T03:39:00.591Z,14.20
2022-08-23T03:41:27.870Z,14.10
2022-08-23T03:43:54.823Z,14.10
2022-08-23T03:46:24.596Z,13.20
2022-08-23T03:48:53.324Z,14.10
2022-08-23T03:51:21.821Z,14.10
2022-08-23T03:53:49.599Z,14.10
2022-08-23T03:56:29.432Z,14.10
2022-08-23T03:58:57.819Z,14.10
2022-08-23T04:01:28.415Z,14.10
2022-08-23T04:03:59.976Z,14.10
2022-08-23T04:06:28.416Z,14.10
2022-08-23T04:08:56.085Z,14.10
2022-08-23T04:11:23.655Z,14.00
2022-08-23T04:13:50.739Z,14.00
2022-08-23T04:16:19.064Z,14.00
2022-08-23T04:18:46.484Z,14.00
2022-08-23T04:21:18.893Z,13.90
2022-08-23T04:23:46.183Z,13.90
2022-08-23T04:26:13.135Z,13.80
2022-08-23T04:28:40.660Z,13.80
2022-08-23T04:31:07.766Z,13.80
2022-08-23T04:33:35.621Z,13.80
2022-08-23T04:36:07.763Z,13.70
2022-08-23T04:38:35.107Z,13.70
2022-08-23T04:41:21.102Z,13.70
2022-08-23T04:43:48.354Z,13.70
2022-08-23T04:46:16.543Z,13.70
2022-08-23T04:48:45.391Z,13.70
2022-08-23T04:51:16.719Z,13.70
2022-08-23T04:53:44.293Z,13.70
2022-08-23T04:56:11.296Z,13.70
2022-08-23T04:58:38.918Z,13.70
2022-08-23T05:01:09.655Z,13.70
2022-08-23T05:03:37.490Z,13.90
2022-08-23T05:06:05.335Z,13.80
2022-08-23T05:08:33.048Z,13.80
2022-08-23T05:11:06.874Z,13.80
2022-08-23T05:13:35.051Z,13.70
2022-08-23T05:16:03.307Z,13.60
2022-08-23T05:18:30.477Z,13.50
2022-08-23T05:20:57.475Z,13.50
2022-08-23T05:23:31.665Z,15.50
2022-08-23T05:25:59.467Z,13.50
2022-08-23T05:28:29.933Z,13.50
2022-08-23T05:31:03.539Z,13.60
2022-08-23T05:33:32.538Z,13.60
2022-08-23T05:36:00.205Z,13.60
2022-08-23T05:38:27.726Z,13.70
2022-08-23T05:40:59.878Z,13.90
2022-08-23T05:43:27.051Z,13.90
2022-08-23T05:46:14.838Z,14.10
2022-08-23T05:48:47.581Z,14.20
2022-08-23T05:51:16.720Z,14.20
2022-08-23T05:53:45.310Z,14.30
2022-08-23T05:56:17.693Z,16.80
2022-08-23T05:58:45.516Z,14.40
2022-08-23T06:01:14.655Z,14.50
2022-08-23T06:03:43.225Z,14.60
2022-08-23T06:06:10.953Z,14.70
2022-08-23T06:08:41.333Z,14.80
2022-08-23T06:11:10.948Z,14.90
2022-08-23T06:13:46.384Z,15.00
2022-08-23T06:16:15.430Z,15.30
2022-08-23T06:18:44.520Z,15.50
2022-08-23T06:21:13.380Z,15.80
2022-08-23T06:23:41.726Z,16.30
2022-08-23T06:26:17.683Z,16.80
2022-08-23T06:28:51.363Z,17.30
2022-08-23T06:31:40.030Z,17.70
2022-08-23T06:34:12.691Z,18.10
2022-08-23T06:36:40.518Z,18.60
2022-08-23T06:39:10.075Z,19.10
2022-08-23T06:41:37.990Z,19.50
2022-08-23T06:44:06.667Z,19.80
2022-08-23T06:46:34.015Z,20.20
2022-08-23T06:49:01.613Z,20.60
2022-08-23T06:51:32.001Z,20.90
2022-08-23T06:54:03.529Z,21.20
2022-08-23T06:56:31.138Z,21.50
2022-08-23T06:58:58.307Z,21.80
2022-08-23T07:02:02.876Z,22.10
2022-08-23T07:04:33.822Z,22.40
2022-08-23T07:07:02.162Z,22.70
2022-08-23T07:09:30.935Z,23.00
2022-08-23T07:11:58.760Z,23.40
2022-08-23T07:14:26.972Z,23.60
2022-08-23T07:17:05.725Z,23.80
2022-08-23T07:19:34.946Z,24.10
2022-08-23T07:22:03.611Z,24.30
2022-08-23T07:24:33.596Z,24.40
2022-08-23T07:27:06.323Z,24.60
2022-08-23T07:29:35.175Z,24.90
2022-08-23T07:32:03.114Z,25.10
2022-08-23T07:34:30.235Z,25.40
2022-08-23T07:36:57.227Z,25.70
2022-08-23T07:39:26.447Z,25.80
2022-08-23T07:41:53.555Z,26.00
2022-08-23T07:44:23.515Z,26.10
2022-08-23T07:46:54.633Z,26.20
2022-08-23T07:49:22.194Z,26.30
2022-08-23T07:51:52.116Z,26.40
2022-08-23T07:54:21.327Z,26.50
2022-08-23T07:56:48.445Z,26.60
2022-08-23T07:59:15.733Z,26.70
2022-08-23T08:01:44.391Z,26.70
2022-08-23T08:04:12.577Z,26.80
2022-08-23T08:06:46.404Z,27.00
2022-08-23T08:09:15.468Z,27.10
2022-08-23T08:11:47.388Z,27.20
2022-08-23T08:14:16.328Z,27.30
2022-08-23T08:16:47.119Z,27.30
2022-08-23T08:19:17.017Z,27.30
2022-08-23T08:21:47.149Z,27.60
2022-08-23T08:24:17.179Z,27.60
2022-08-23T08:26:45.714Z,27.70
2022-08-23T08:29:13.838Z,27.70
2022-08-23T08:31:43.585Z,27.70
2022-08-23T08:34:10.784Z,27.80
2022-08-23T08:36:47.101Z,27.90
2022-08-23T08:39:17.181Z,27.80
2022-08-23T08:42:03.859Z,27.70
2022-08-23T08:44:56.548Z,27.50
2022-08-23T08:47:35.756Z,27.60
2022-08-23T08:50:24.274Z,27.50
2022-08-23T08:53:11.433Z,27.40
2022-08-23T08:55:57.127Z,27.20
2022-08-23T08:58:52.885Z,27.00
2022-08-23T09:01:21.705Z,26.80
2022-08-23T09:03:50.931Z,26.60
2022-08-23T09:06:33.576Z,26.50
2022-08-23T09:09:30.549Z,26.40
2022-08-23T09:12:19.230Z,26.30
2022-08-23T09:15:11.879Z,26.20
2022-08-23T09:17:56.467Z,26.20
2022-08-23T09:20:32.959Z,26.20
2022-08-23T09:23:39.658Z,26.10
2022-08-23T09:26:23.262Z,26.00
2022-08-23T09:28:55.789Z,25.70
2022-08-23T09:31:44.731Z,25.60
2022-08-23T09:34:19.152Z,25.50
2022-08-23T09:36:46.751Z,25.40
2022-08-23T09:39:31.971Z,25.40
2022-08-23T09:42:00.072Z,25.40
2022-08-23T09:44:43.508Z,25.40
2022-08-23T09:47:17.136Z,25.40
2022-08-23T09:49:47.720Z,25.20
2022-08-23T09:52:33.831Z,25.30
2022-08-23T09:55:09.497Z,25.40
2022-08-23T09:57:37.157Z,25.40
2022-08-23T10:00:16.746Z,25.50
2022-08-23T10:02:43.858Z,25.50
2022-08-23T10:05:37.459Z,25.40
2022-08-23T10:08:08.779Z,25.30
2022-08-23T10:10:54.016Z,25.30
2022-08-23T10:13:21.904Z,25.40
2022-08-23T10:16:11.980Z,25.20
2022-08-23T10:19:00.828Z,25.10
2022-08-23T10:21:33.607Z,25.10
2022-08-23T10:24:06.589Z,25.20
2022-08-23T10:26:35.931Z,25.40
2022-08-23T10:29:35.427Z,25.50
2022-08-23T10:32:21.519Z,25.60
2022-08-23T10:35:00.984Z,25.50
2022-08-23T10:37:43.380Z,25.50
2022-08-23T10:40:28.883Z,25.60
2022-08-23T10:42:58.837Z,25.70
2022-08-23T10:45:35.042Z,25.80
2022-08-23T10:48:17.387Z,25.90
2022-08-23T10:51:06.731Z,26.00
2022-08-23T10:53:47.049Z,26.00
2022-08-23T10:56:19.225Z,26.00
2022-08-23T10:58:54.655Z,25.80
2022-08-23T11:01:40.918Z,25.70
2022-08-23T11:04:30.604Z,25.50
2022-08-23T11:07:00.893Z,25.40
2022-08-23T11:09:27.927Z,25.50
2022-08-23T11:12:33.726Z,25.60
2022-08-23T11:15:18.744Z,25.80
2022-08-23T11:18:08.256Z,26.00
2022-08-23T11:20:50.629Z,26.00
2022-08-23T11:23:38.666Z,26.00
2022-08-23T11:26:08.895Z,26.10
2022-08-23T11:28:46.255Z,26.10
2022-08-23T11:31:25.478Z,26.00
2022-08-23T11:34:19.665Z,25.90
2022-08-23T11:37:20.227Z,25.90
2022-08-23T11:39:59.524Z,26.20
2022-08-23T11:42:38.660Z,26.50
2022-08-23T11:45:27.487Z,26.70
2022-08-23T11:48:22.756Z,26.70
2022-08-23T11:51:01.862Z,26.90
2022-08-23T11:53:55.268Z,26.90
2022-08-23T11:56:57.494Z,27.00
2022-08-23T11:59:50.925Z,26.80
2022-08-23T12:02:52.031Z,26.40
2022-08-23T12:05:51.225Z,26.00
2022-08-23T12:08:49.361Z,25.90
2022-08-23T12:11:18.848Z,25.90
2022-08-23T12:13:48.179Z,25.60
2022-08-23T12:16:17.456Z,25.90
2022-08-23T12:18:48.073Z,26.10
2022-08-23T12:21:39.419Z,26.30
2022-08-23T12:24:32.320Z,26.60
2022-08-23T12:27:07.745Z,26.80
2022-08-23T12:29:52.717Z,27.10
2022-08-23T12:32:28.759Z,27.30
2022-08-23T12:35:07.363Z,27.50
2022-08-23T12:37:41.466Z,27.70
2022-08-23T12:40:14.765Z,27.70
2022-08-23T12:42:46.079Z,27.70
2022-08-23T12:45:23.414Z,27.70
2022-08-23T12:48:02.552Z,27.80
2022-08-23T12:50:38.469Z,27.80
2022-08-23T12:53:08.593Z,27.80
2022-08-23T12:55:40.924Z,28.00
2022-08-23T12:58:09.511Z,28.00
2022-08-23T13:00:50.585Z,27.90
2022-08-23T13:03:27.771Z,27.90
2022-08-23T13:05:54.672Z,28.00
2022-08-23T13:08:34.767Z,27.70
2022-08-23T13:11:07.678Z,27.20
2022-08-23T13:13:37.828Z,26.90
2022-08-23T13:16:27.101Z,26.80
2022-08-23T13:18:56.529Z,26.90
2022-08-23T13:21:23.541Z,27.00
2022-08-23T13:23:52.354Z,27.10
2022-08-23T13:26:35.162Z,27.20
2022-08-23T13:29:02.270Z,27.30
2022-08-23T13:32:04.099Z,27.30
2022-08-23T13:34:47.003Z,27.20
2022-08-23T13:37:33.084Z,27.20
2022-08-23T13:40:07.449Z,27.20
2022-08-23T13:42:48.443Z,27.30
2022-08-23T13:45:32.093Z,27.30
2022-08-23T13:48:11.550Z,27.30
2022-08-23T13:50:39.246Z,27.30
2022-08-23T13:53:15.910Z,27.20
2022-08-23T13:55:55.425Z,27.20
2022-08-23T13:58:31.633Z,27.20
2022-08-23T14:01:00.650Z,27.40
2022-08-23T14:03:31.406Z,27.60
2022-08-23T14:05:58.457Z,27.80
2022-08-23T14:08:25.575Z,27.90
2022-08-23T14:10:52.681Z,28.20
2022-08-23T14:13:24.221Z,28.30
2022-08-23T14:15:56.447Z,28.40
2022-08-23T14:18:24.835Z,28.50
2022-08-23T14:20:52.576Z,28.60
2022-08-23T14:23:19.657Z,28.80
2022-08-23T14:25:48.724Z,28.90
2022-08-23T14:28:15.835Z,29.00
2022-08-23T14:30:42.941Z,29.00
2022-08-23T14:33:11.027Z,29.10
2022-08-23T14:35:38.151Z,29.10
2022-08-23T14:38:05.469Z,29.10
2022-08-23T14:40:35.063Z,29.20
2022-08-23T14:43:03.032Z,29.40
2022-08-23T14:45:30.053Z,29.50
2022-08-23T14:47:57.104Z,29.50
2022-08-23T14:50:24.109Z,29.60
2022-08-23T14:52:51.037Z,29.70
2022-08-23T14:55:20.178Z,29.80
2022-08-23T14:57:51.683Z,29.70
2022-08-23T15:00:18.949Z,29.70
2022-08-23T15:02:47.432Z,29.70
2022-08-23T15:05:15.306Z,29.80
2022-08-23T15:07:42.574Z,29.90
2022-08-23T15:10:11.023Z,29.80
2022-08-23T15:15:26.427Z,29.80
2022-08-23T15:17:57.041Z,29.60
2022-08-23T15:20:31.308Z,29.30
2022-08-23T15:22:58.294Z,29.10
2022-08-23T15:25:28.595Z,29.10
2022-08-23T15:27:56.169Z,29.30
2022-08-23T15:30:24.685Z,29.30
2022-08-23T15:32:52.792Z,29.40
2022-08-23T15:35:25.674Z,29.50
2022-08-23T15:37:56.711Z,29.60
2022-08-23T15:40:25.591Z,29.60
2022-08-23T15:42:53.255Z,29.70
2022-08-23T15:45:20.350Z,29.80
2022-08-23T15:47:51.607Z,29.70
2022-08-23T15:50:21.571Z,29.70
2022-08-23T15:52:48.716Z,29.70
2022-08-23T15:55:16.713Z,29.70
2022-08-23T15:57:53.321Z,29.70
2022-08-23T16:00:22.959Z,29.30
2022-08-23T16:03:18.960Z,29.10
2022-08-23T16:05:39.736Z,29.10
2022-08-23T16:08:08.406Z,29.00
2022-08-23T16:10:35.518Z,29.00
2022-08-23T16:13:03.843Z,28.80
2022-08-23T16:15:31.178Z,28.60
2022-08-23T16:17:58.513Z,28.40
2022-08-23T16:20:25.749Z,28.20
2022-08-23T16:22:53.316Z,28.00
2022-08-23T16:25:20.654Z,27.60
2022-08-23T16:27:47.928Z,27.90
2022-08-23T16:30:15.710Z,27.90
2022-08-23T16:32:42.853Z,28.00
2022-08-23T16:35:10.412Z,28.20
2022-08-23T16:37:37.607Z,28.40
2022-08-23T16:40:06.857Z,28.50
2022-08-23T16:42:33.899Z,28.60
2022-08-23T16:45:10.929Z,28.60
2022-08-23T16:47:42.189Z,28.50
2022-08-23T16:50:12.915Z,28.50
2022-08-23T16:52:40.199Z,28.60
2022-08-23T16:55:11.524Z,28.70
2022-08-23T16:57:39.835Z,28.70
2022-08-23T17:00:13.762Z,28.70
2022-08-23T17:02:41.979Z,28.70
2022-08-23T17:05:12.088Z,28.70
2022-08-23T17:07:39.564Z,28.60
2022-08-23T17:10:08.615Z,28.60
2022-08-23T17:12:39.914Z,28.60
2022-08-23T17:15:09.221Z,28.60
2022-08-23T17:17:36.526Z,28.50
2022-08-23T17:20:06.681Z,28.50
2022-08-23T17:22:33.954Z,28.40
2022-08-23T17:25:03.546Z,28.30
2022-08-23T17:27:31.390Z,28.20
2022-08-23T17:29:58.485Z,28.20
2022-08-23T17:32:25.570Z,28.10
2022-08-23T17:34:52.630Z,28.00
2022-08-23T17:37:22.203Z,27.90
2022-08-23T17:39:50.803Z,27.80
2022-08-23T17:42:21.385Z,27.60
2022-08-23T17:44:48.968Z,27.60
2022-08-23T17:47:17.936Z,27.50
2022-08-23T17:49:47.067Z,27.40
2022-08-23T17:52:14.533Z,27.30
2022-08-23T17:54:42.004Z,27.20
2022-08-23T17:57:11.556Z,27.10
2022-08-23T17:59:38.655Z,27.00
2022-08-23T18:02:05.903Z,26.90
2022-08-23T18:04:32.909Z,26.80
2022-08-23T18:07:00.113Z,26.60
2022-08-23T18:09:27.293Z,26.50
2022-08-23T18:11:54.234Z,26.40
2022-08-23T18:14:21.243Z,26.30
2022-08-23T18:16:48.457Z,26.20
2022-08-23T18:19:15.768Z,26.10
2022-08-23T18:21:44.277Z,26.00
2022-08-23T18:24:11.473Z,25.80
2022-08-23T18:26:57.841Z,25.70
2022-08-23T18:29:25.196Z,25.50
2022-08-23T18:31:52.260Z,25.40
2022-08-23T18:34:20.169Z,25.20
2022-08-23T18:36:47.270Z,25.10
2022-08-23T18:39:15.353Z,24.90
2022-08-23T18:41:42.821Z,24.80
2022-08-23T18:44:10.996Z,24.70
2022-08-23T18:46:42.221Z,24.50
2022-08-23T18:49:10.977Z,24.30
2022-08-23T18:51:39.822Z,24.20
2022-08-23T18:54:07.898Z,24.10
2022-08-23T18:56:35.250Z,23.90
2022-08-23T18:59:02.602Z,23.70
2022-08-23T19:01:33.460Z,23.60
2022-08-23T19:04:02.600Z,23.60
2022-08-23T19:06:30.639Z,23.40
2022-08-23T19:08:57.658Z,23.20
2022-08-23T19:11:24.588Z,23.10
2022-08-23T19:13:51.640Z,22.90
2022-08-23T19:16:20.279Z,22.80
2022-08-23T19:18:50.688Z,22.70
2022-08-23T19:21:21.434Z,22.70
2022-08-23T19:23:50.651Z,22.70
2022-08-23T19:26:20.844Z,24.40
2022-08-23T19:28:48.341Z,22.40
2022-08-23T19:31:15.744Z,22.30
2022-08-23T19:33:43.103Z,22.20
2022-08-23T19:36:23.696Z,22.20
2022-08-23T19:38:57.180Z,22.10
2022-08-23T19:41:24.389Z,22.00
2022-08-23T19:43:51.546Z,21.90
2022-08-23T19:46:18.531Z,21.90
2022-08-23T19:48:47.203Z,21.80
2022-08-23T19:51:16.187Z,21.70
2022-08-23T19:54:03.718Z,21.70
2022-08-23T19:56:58.958Z,21.60
2022-08-23T19:59:27.522Z,21.50
2022-08-23T20:01:55.615Z,21.40
2022-08-23T20:04:23.673Z,21.30
2022-08-23T20:06:50.968Z,21.30
2022-08-23T20:09:20.253Z,21.30
2022-08-23T20:11:47.339Z,21.30
2022-08-23T20:14:15.018Z,21.30
2022-08-23T20:16:42.390Z,21.20
2022-08-23T20:19:10.429Z,21.20
2022-08-23T20:21:38.846Z,21.10
2022-08-23T20:24:10.231Z,21.00
2022-08-23T20:26:41.655Z,20.90
2022-08-23T20:29:11.958Z,20.90
2022-08-23T20:31:46.963Z,20.70
2022-08-23T20:34:13.994Z,20.70
2022-08-23T20:36:41.097Z,20.60
2022-08-23T20:39:08.270Z,20.50
2022-08-23T20:41:37.331Z,20.40
2022-08-23T20:44:05.940Z,20.30
2022-08-23T20:46:33.183Z,20.30
2022-08-23T20:49:00.174Z,20.20
2022-08-23T20:51:28.551Z,20.20
2022-08-23T20:53:56.315Z,20.10
2022-08-23T20:56:25.164Z,20.10
2022-08-23T20:58:52.661Z,20.00
2022-08-23T21:01:19.767Z,19.90
2022-08-23T21:03:47.482Z,19.90
2022-08-23T21:06:20.128Z,19.90
2022-08-23T21:08:53.723Z,19.80
2022-08-23T21:11:22.542Z,19.80
2022-08-23T21:13:49.931Z,19.70
2022-08-23T21:16:17.508Z,19.60
2022-08-23T21:18:44.888Z,19.60
2022-08-23T21:21:12.905Z,19.50
2022-08-23T21:23:39.945Z,19.50
2022-08-23T21:26:08.027Z,19.40
2022-08-23T21:28:36.298Z,19.40
2022-08-23T21:31:09.338Z,19.30
2022-08-23T21:33:39.973Z,19.30
2022-08-23T21:36:08.421Z,19.20
2022-08-23T21:38:35.524Z,19.20
2022-08-23T21:41:05.880Z,19.10
2022-08-23T21:43:34.201Z,19.10
2022-08-23T21:46:01.275Z,19.10
2022-08-23T21:48:28.237Z,19.10
2022-08-23T21:50:55.266Z,19.10
2022-08-23T21:53:22.168Z,19.10
2022-08-23T21:55:49.443Z,19.00
2022-08-23T21:58:16.417Z,19.00
2022-08-23T22:00:43.664Z,18.90
2022-08-23T22:03:11.243Z,18.90
2022-08-23T22:05:43.418Z,18.80
2022-08-23T22:08:14.332Z,18.80
2022-08-23T22:10:52.235Z,18.80
2022-08-23T22:13:28.777Z,18.70
2022-08-23T22:15:56.514Z,18.60
2022-08-23T22:18:23.586Z,18.50
2022-08-23T22:20:50.527Z,18.50
2022-08-23T22:23:17.645Z,18.40
2022-08-23T22:25:45.014Z,18.30
2022-08-23T22:28:11.913Z,18.20
2022-08-23T22:30:41.340Z,18.10
2022-08-23T22:33:08.417Z,18.10
2022-08-23T22:35:36.400Z,18.00
2022-08-23T22:38:13.662Z,18.00
2022-08-23T22:40:48.394Z,18.00
2022-08-23T22:43:16.521Z,17.90
2022-08-23T22:45:58.788Z,17.90
2022-08-23T22:48:29.653Z,17.90
2022-08-23T22:51:19.696Z,17.80
2022-08-23T22:53:50.764Z,17.80
2022-08-23T22:56:20.669Z,17.70
2022-08-23T22:58:49.810Z,17.70
2022-08-23T23:01:27.218Z,17.60
2022-08-23T23:03:57.334Z,17.60
2022-08-23T23:06:24.992Z,17.50
2022-08-23T23:08:52.738Z,17.40
2022-08-23T23:11:20.999Z,17.30
2022-08-23T23:13:48.560Z,17.20
2022-08-23T23:16:20.588Z,17.20
2022-08-23T23:19:06.142Z,17.10
2022-08-23T23:21:35.340Z,17.10
2022-08-23T23:24:02.865Z,17.00
2022-08-23T23:26:30.040Z,17.00
2022-08-23T23:28:57.194Z,17.00
2022-08-23T23:31:24.399Z,16.90
2022-08-23T23:33:51.491Z,16.90
2022-08-23T23:36:18.917Z,16.30
2022-08-23T23:38:45.915Z,16.90
2022-08-23T23:41:13.063Z,16.90
2022-08-23T23:43:40.972Z,16.90
2022-08-23T23:46:15.190Z,17.00
2022-08-23T23:48:44.721Z,16.80
2022-08-23T23:51:14.723Z,16.80
2022-08-23T23:53:41.708Z,16.80
2022-08-23T23:56:11.565Z,16.80
2022-08-23T23:58:38.741Z,16.80
